Dati Storici

Data ora Umidita' aria (%) Temperatura aria (°C) Rad globale (W/m²) Gonioanemometro (°) Tacoanemometro (m/s) Pioggia (mm)
29-10-2012 07:30 76.6 % 3.984 2.519 264.907 2.016 0
29-10-2012 07:20 77 % 3.952 2.006 30.213 3.086 0
29-10-2012 07:10 77.5 % 3.935 1.916 29.346 2.537 0
29-10-2012 07:00 77.7 % 3.947 1.634 29.406 1.75 0
29-10-2012 06:50 77.8 % 3.941 1.62 28.107 1.744 0
29-10-2012 06:40 77.3 % 4.081 2.018 52.594 1.874 0
29-10-2012 06:30 76.6 % 4.317 2.261 7.277 1.39 0
29-10-2012 06:20 76.1 % 4.402 2.595 3.364 2.57 0
29-10-2012 06:10 76.3 % 4.488 2.736 1.094 2.022 0
29-10-2012 06:00 76.5 % 4.482 3.031 1.118 2.856 0
29-10-2012 05:50 76.6 % 4.533 3.249 17.876 2.841 0
29-10-2012 05:40 76.8 % 4.574 3.416 24.729 2.666 0
29-10-2012 05:30 77 % 4.593 3.054 24.455 1.432 0
29-10-2012 05:20 77.2 % 4.66 2.746 15.082 1.699 0
29-10-2012 05:10 77.1 % 4.733 2.67 56.67 1.189 0
29-10-2012 05:00 77.6 % 4.796 2.746 244.963 1.113 0
29-10-2012 04:50 76.8 % 4.937 2.849 18.955 2.444 0
29-10-2012 04:40 76.8 % 4.991 2.874 49.98 2.202 0
29-10-2012 04:30 76.5 % 5.107 3.029 239.571 2.623 0
29-10-2012 04:20 77 % 5.173 3.183 11.658 3.05 0

I dati sono presentati in modo automatico a scopo informativo. In seguito a verifica i dati possono subire modifiche o essere invalidati e non riportati negli archivi definitivi.